sensor_id;sensor_type;location;lat;lon;timestamp;pressure;altitude;pressure_sealevel;temperature;humidity
73516;BME280;61763;51.416;5.442;2023-04-08T00:01:47;102150.38;;;6.51;100.00
73516;BME280;61763;51.416;5.442;2023-04-08T00:04:13;102152.13;;;6.53;100.00
73516;BME280;61763;51.416;5.442;2023-04-08T00:06:40;102140.47;;;6.57;100.00
73516;BME280;61763;51.416;5.442;2023-04-08T00:09:06;102140.44;;;6.60;100.00
73516;BME280;61763;51.416;5.442;2023-04-08T00:11:31;102152.00;;;6.64;100.00
73516;BME280;61763;51.416;5.442;2023-04-08T00:13:57;102150.16;;;6.68;100.00
73516;BME280;61763;51.416;5.442;2023-04-08T00:16:22;102145.63;;;6.71;100.00
73516;BME280;61763;51.416;5.442;2023-04-08T00:18:48;102142.91;;;6.74;100.00
73516;BME280;61763;51.416;5.442;2023-04-08T00:21:13;102141.97;;;6.78;100.00
73516;BME280;61763;51.416;5.442;2023-04-08T00:23:42;102142.91;;;6.77;100.00
73516;BME280;61763;51.416;5.442;2023-04-08T00:26:07;102146.41;;;6.81;100.00
73516;BME280;61763;51.416;5.442;2023-04-08T00:28:33;102147.31;;;6.80;100.00
73516;BME280;61763;51.416;5.442;2023-04-08T00:30:58;102148.22;;;6.80;100.00
73516;BME280;61763;51.416;5.442;2023-04-08T00:33:23;102150.00;;;6.80;100.00
73516;BME280;61763;51.416;5.442;2023-04-08T00:35:50;102155.38;;;6.78;100.00
73516;BME280;61763;51.416;5.442;2023-04-08T00:38:16;102146.47;;;6.78;100.00
73516;BME280;61763;51.416;5.442;2023-04-08T00:40:42;102144.69;;;6.75;100.00
73516;BME280;61763;51.416;5.442;2023-04-08T00:43:08;102151.81;;;6.78;100.00
73516;BME280;61763;51.416;5.442;2023-04-08T00:45:34;102156.31;;;6.77;100.00
73516;BME280;61763;51.416;5.442;2023-04-08T00:48:01;102152.66;;;6.81;100.00
73516;BME280;61763;51.416;5.442;2023-04-08T00:50:27;102158.94;;;6.82;100.00
73516;BME280;61763;51.416;5.442;2023-04-08T00:52:53;102155.28;;;6.84;100.00
73516;BME280;61763;51.416;5.442;2023-04-08T00:55:18;102157.09;;;6.84;100.00
73516;BME280;61763;51.416;5.442;2023-04-08T00:57:44;102151.78;;;6.81;100.00
73516;BME280;61763;51.416;5.442;2023-04-08T01:00:10;102156.28;;;6.80;100.00
73516;BME280;61763;51.416;5.442;2023-04-08T01:08:28;102161.69;;;6.76;100.00
73516;BME280;61763;51.416;5.442;2023-04-08T01:11:00;102159.91;;;6.76;100.00
73516;BME280;61763;51.416;5.442;2023-04-08T01:13:29;102151.84;;;6.76;100.00
73516;BME280;61763;51.416;5.442;2023-04-08T01:15:55;102162.56;;;6.78;100.00
73516;BME280;61763;51.416;5.442;2023-04-08T01:18:21;102167.06;;;6.77;100.00
73516;BME280;61763;51.416;5.442;2023-04-08T01:20:48;102166.13;;;6.78;100.00
73516;BME280;61763;51.416;5.442;2023-04-08T01:25:54;102157.19;;;6.78;100.00
73516;BME280;61763;51.416;5.442;2023-04-08T01:28:22;102167.06;;;6.77;100.00
73516;BME280;61763;51.416;5.442;2023-04-08T01:30:48;102165.22;;;6.79;100.00
73516;BME280;61763;51.416;5.442;2023-04-08T01:33:16;102168.81;;;6.78;100.00
73516;BME280;61763;51.416;5.442;2023-04-08T01:35:43;102167.00;;;6.80;100.00
73516;BME280;61763;51.416;5.442;2023-04-08T01:38:10;102160.75;;;6.78;100.00
73516;BME280;61763;51.416;5.442;2023-04-08T01:40:38;102176.81;;;6.80;100.00
73516;BME280;61763;51.416;5.442;2023-04-08T01:43:07;102177.72;;;6.82;100.00
73516;BME280;61763;51.416;5.442;2023-04-08T01:45:34;102173.25;;;6.81;100.00
73516;BME280;61763;51.416;5.442;2023-04-08T01:48:00;102169.69;;;6.80;100.00
73516;BME280;61763;51.416;5.442;2023-04-08T01:50:26;102171.47;;;6.80;100.00
73516;BME280;61763;51.416;5.442;2023-04-08T01:52:53;102168.81;;;6.78;100.00
73516;BME280;61763;51.416;5.442;2023-04-08T01:55:19;102173.28;;;6.78;100.00
73516;BME280;61763;51.416;5.442;2023-04-08T01:57:50;102168.81;;;6.78;100.00
73516;BME280;61763;51.416;5.442;2023-04-08T02:00:21;102174.22;;;6.75;100.00
73516;BME280;61763;51.416;5.442;2023-04-08T02:02:47;102161.72;;;6.73;100.00
73516;BME280;61763;51.416;5.442;2023-04-08T02:05:13;102169.75;;;6.73;100.00
73516;BME280;61763;51.416;5.442;2023-04-08T02:07:39;102173.41;;;6.70;100.00
73516;BME280;61763;51.416;5.442;2023-04-08T02:10:10;102166.25;;;6.69;100.00
73516;BME280;61763;51.416;5.442;2023-04-08T02:12:35;102175.16;;;6.70;100.00
73516;BME280;61763;51.416;5.442;2023-04-08T02:15:01;102178.78;;;6.69;100.00
73516;BME280;61763;51.416;5.442;2023-04-08T02:17:43;102171.66;;;6.66;100.00
73516;BME280;61763;51.416;5.442;2023-04-08T02:20:16;102177.00;;;6.68;100.00
73516;BME280;61763;51.416;5.442;2023-04-08T02:22:48;102174.34;;;6.66;100.00
73516;BME280;61763;51.416;5.442;2023-04-08T02:25:16;102177.00;;;6.68;100.00
73516;BME280;61763;51.416;5.442;2023-04-08T02:27:43;102173.44;;;6.67;100.00
73516;BME280;61763;51.416;5.442;2023-04-08T02:30:11;102181.50;;;6.65;100.00
73516;BME280;61763;51.416;5.442;2023-04-08T02:32:38;102181.50;;;6.64;100.00
73516;BME280;61763;51.416;5.442;2023-04-08T02:35:04;102185.97;;;6.65;100.00
73516;BME280;61763;51.416;5.442;2023-04-08T02:37:33;102186.88;;;6.65;100.00
73516;BME280;61763;51.416;5.442;2023-04-08T02:39:59;102181.50;;;6.67;100.00
73516;BME280;61763;51.416;5.442;2023-04-08T02:42:24;102185.94;;;6.66;100.00
73516;BME280;61763;51.416;5.442;2023-04-08T02:44:50;102185.97;;;6.65;100.00
73516;BME280;61763;51.416;5.442;2023-04-08T02:47:15;102194.91;;;6.65;100.00
73516;BME280;61763;51.416;5.442;2023-04-08T02:49:41;102184.19;;;6.62;100.00
73516;BME280;61763;51.416;5.442;2023-04-08T02:52:06;102188.66;;;6.65;100.00
73516;BME280;61763;51.416;5.442;2023-04-08T02:54:32;102190.47;;;6.64;100.00
73516;BME280;61763;51.416;5.442;2023-04-08T02:56:57;102191.34;;;6.63;100.00
73516;BME280;61763;51.416;5.442;2023-04-08T02:59:24;102191.34;;;6.65;100.00
73516;BME280;61763;51.416;5.442;2023-04-08T03:01:50;102196.75;;;6.62;100.00
73516;BME280;61763;51.416;5.442;2023-04-08T03:04:15;102197.63;;;6.61;100.00
73516;BME280;61763;51.416;5.442;2023-04-08T03:06:40;102197.63;;;6.62;100.00
73516;BME280;61763;51.416;5.442;2023-04-08T03:09:06;102203.00;;;6.61;100.00
73516;BME280;61763;51.416;5.442;2023-04-08T03:11:32;102198.59;;;6.58;100.00
73516;BME280;61763;51.416;5.442;2023-04-08T03:13:57;102202.16;;;6.57;100.00
73516;BME280;61763;51.416;5.442;2023-04-08T03:16:24;102191.47;;;6.56;100.00
73516;BME280;61763;51.416;5.442;2023-04-08T03:18:49;102206.66;;;6.55;100.00
73516;BME280;61763;51.416;5.442;2023-04-08T03:21:18;102188.78;;;6.54;100.00
73516;BME280;61763;51.416;5.442;2023-04-08T03:23:44;102199.53;;;6.53;100.00
73516;BME280;61763;51.416;5.442;2023-04-08T03:26:09;102202.25;;;6.51;100.00
73516;BME280;61763;51.416;5.442;2023-04-08T03:28:36;102208.50;;;6.50;100.00
73516;BME280;61763;51.416;5.442;2023-04-08T03:31:04;102202.25;;;6.49;100.00
73516;BME280;61763;51.416;5.442;2023-04-08T03:33:31;102209.34;;;6.52;100.00
73516;BME280;61763;51.416;5.442;2023-04-08T03:35:56;102195.13;;;6.47;100.00
73516;BME280;61763;51.416;5.442;2023-04-08T03:38:21;102212.03;;;6.55;100.00
73516;BME280;61763;51.416;5.442;2023-04-08T03:40:47;102210.25;;;6.54;100.00
73516;BME280;61763;51.416;5.442;2023-04-08T03:43:13;102213.81;;;6.53;100.00
73516;BME280;61763;51.416;5.442;2023-04-08T03:45:39;102212.03;;;6.55;100.00
73516;BME280;61763;51.416;5.442;2023-04-08T03:48:04;102205.78;;;6.53;100.00
73516;BME280;61763;51.416;5.442;2023-04-08T03:50:30;102219.19;;;6.53;100.00
73516;BME280;61763;51.416;5.442;2023-04-08T03:52:55;102210.25;;;6.54;100.00
73516;BME280;61763;51.416;5.442;2023-04-08T03:55:21;102212.94;;;6.54;100.00
73516;BME280;61763;51.416;5.442;2023-04-08T03:57:46;102205.69;;;6.61;100.00
73516;BME280;61763;51.416;5.442;2023-04-08T04:00:12;102211.97;;;6.61;100.00
73516;BME280;61763;51.416;5.442;2023-04-08T04:02:38;102213.69;;;6.65;100.00
73516;BME280;61763;51.416;5.442;2023-04-08T04:05:04;102215.41;;;6.70;100.00
73516;BME280;61763;51.416;5.442;2023-04-08T04:07:30;102205.69;;;6.61;100.00
73516;BME280;61763;51.416;5.442;2023-04-08T04:09:55;102209.28;;;6.60;100.00
73516;BME280;61763;51.416;5.442;2023-04-08T04:12:22;102205.72;;;6.58;100.00
73516;BME280;61763;51.416;5.442;2023-04-08T04:14:47;102207.50;;;6.60;100.00
73516;BME280;61763;51.416;5.442;2023-04-08T04:17:13;102204.84;;;6.57;100.00
73516;BME280;61763;51.416;5.442;2023-04-08T04:19:38;102206.63;;;6.58;100.00
73516;BME280;61763;51.416;5.442;2023-04-08T04:22:04;102206.66;;;6.57;100.00
73516;BME280;61763;51.416;5.442;2023-04-08T04:24:29;102209.34;;;6.57;100.00
73516;BME280;61763;51.416;5.442;2023-04-08T04:26:54;102211.13;;;6.55;100.00
73516;BME280;61763;51.416;5.442;2023-04-08T04:29:20;102209.34;;;6.52;100.00
73516;BME280;61763;51.416;5.442;2023-04-08T04:31:45;102218.34;;;6.49;100.00
73516;BME280;61763;51.416;5.442;2023-04-08T04:34:11;102213.03;;;6.46;100.00
73516;BME280;61763;51.416;5.442;2023-04-08T04:36:36;102224.66;;;6.45;100.00
73516;BME280;61763;51.416;5.442;2023-04-08T04:39:02;102222.00;;;6.44;100.00
73516;BME280;61763;51.416;5.442;2023-04-08T04:41:27;102233.59;;;6.44;100.00
73516;BME280;61763;51.416;5.442;2023-04-08T04:43:53;102233.59;;;6.43;100.00
73516;BME280;61763;51.416;5.442;2023-04-08T04:46:18;102230.97;;;6.38;100.00
73516;BME280;61763;51.416;5.442;2023-04-08T04:48:43;102227.44;;;6.38;100.00
73516;BME280;61763;51.416;5.442;2023-04-08T04:51:09;102235.50;;;6.35;100.00
73516;BME280;61763;51.416;5.442;2023-04-08T04:53:34;102240.84;;;6.38;100.00
73516;BME280;61763;51.416;5.442;2023-04-08T04:55:59;102240.78;;;6.41;100.00
73516;BME280;61763;51.416;5.442;2023-04-08T04:58:28;102235.38;;;6.45;100.00
73516;BME280;61763;51.416;5.442;2023-04-08T05:00:53;102238.06;;;6.45;100.00
73516;BME280;61763;51.416;5.442;2023-04-08T05:03:19;102247.00;;;6.44;100.00
73516;BME280;61763;51.416;5.442;2023-04-08T05:05:50;102252.38;;;6.44;100.00
73516;BME280;61763;51.416;5.442;2023-04-08T05:08:15;102252.28;;;6.54;100.00
73516;BME280;61763;51.416;5.442;2023-04-08T05:10:41;102255.78;;;6.60;100.00
73516;BME280;61763;51.416;5.442;2023-04-08T05:13:06;102258.44;;;6.62;100.00
73516;BME280;61763;51.416;5.442;2023-04-08T05:15:31;102253.06;;;6.63;100.00
73516;BME280;61763;51.416;5.442;2023-04-08T05:17:57;102259.28;;;6.69;100.00
73516;BME280;61763;51.416;5.442;2023-04-08T05:20:22;102260.16;;;6.69;100.00
73516;BME280;61763;51.416;5.442;2023-04-08T05:22:48;102266.38;;;6.71;100.00
73516;BME280;61763;51.416;5.442;2023-04-08T05:25:13;102261.94;;;6.70;100.00
73516;BME280;61763;51.416;5.442;2023-04-08T05:27:39;102271.75;;;6.70;100.00
73516;BME280;61763;51.416;5.442;2023-04-08T05:30:05;102270.03;;;6.67;100.00
73516;BME280;61763;51.416;5.442;2023-04-08T05:32:30;102264.56;;;6.73;100.00
73516;BME280;61763;51.416;5.442;2023-04-08T05:34:56;102269.94;;;6.75;100.00
73516;BME280;61763;51.416;5.442;2023-04-08T05:37:21;102265.38;;;6.80;100.00
73516;BME280;61763;51.416;5.442;2023-04-08T05:39:47;102263.53;;;6.85;100.00
73516;BME280;61763;51.416;5.442;2023-04-08T05:42:12;102269.72;;;6.90;100.00
73516;BME280;61763;51.416;5.442;2023-04-08T05:44:38;102279.53;;;6.94;100.00
73516;BME280;61763;51.416;5.442;2023-04-08T05:47:05;102267.84;;;6.98;100.00
73516;BME280;61763;51.416;5.442;2023-04-08T05:49:32;102272.31;;;7.01;100.00
73516;BME280;61763;51.416;5.442;2023-04-08T05:51:58;102277.66;;;7.03;100.00
73516;BME280;61763;51.416;5.442;2023-04-08T05:54:23;102282.06;;;7.07;100.00
73516;BME280;61763;51.416;5.442;2023-04-08T05:56:49;102281.97;;;7.14;100.00
73516;BME280;61763;51.416;5.442;2023-04-08T05:59:14;102285.50;;;7.16;100.00
73516;BME280;61763;51.416;5.442;2023-04-08T06:01:39;102294.41;;;7.22;100.00
73516;BME280;61763;51.416;5.442;2023-04-08T06:04:05;102291.66;;;7.26;100.00
73516;BME280;61763;51.416;5.442;2023-04-08T06:06:30;102288.88;;;7.32;100.00
73516;BME280;61763;51.416;5.442;2023-04-08T06:08:56;102292.38;;;7.39;100.00
73516;BME280;61763;51.416;5.442;2023-04-08T06:11:21;102293.13;;;7.49;100.00
73516;BME280;61763;51.416;5.442;2023-04-08T06:13:46;102294.91;;;7.50;100.00
73516;BME280;61763;51.416;5.442;2023-04-08T06:16:13;102299.31;;;7.56;100.00
73516;BME280;61763;51.416;5.442;2023-04-08T06:18:40;102298.34;;;7.61;100.00
73516;BME280;61763;51.416;5.442;2023-04-08T06:21:06;102299.13;;;7.66;100.00
73516;BME280;61763;51.416;5.442;2023-04-08T06:23:31;102293.56;;;7.79;100.00
73516;BME280;61763;51.416;5.442;2023-04-08T06:25:57;102306.16;;;7.77;100.00
73516;BME280;61763;51.416;5.442;2023-04-08T06:28:23;102310.56;;;7.82;100.00
73516;BME280;61763;51.416;5.442;2023-04-08T06:30:49;102313.09;;;7.92;100.00
73516;BME280;61763;51.416;5.442;2023-04-08T06:33:14;102320.13;;;8.00;100.00
73516;BME280;61763;51.416;5.442;2023-04-08T06:35:40;102325.53;;;7.99;100.00
73516;BME280;61763;51.416;5.442;2023-04-08T06:38:05;102318.31;;;8.01;100.00
73516;BME280;61763;51.416;5.442;2023-04-08T06:40:32;102321.75;;;8.11;100.00
73516;BME280;61763;51.416;5.442;2023-04-08T06:42:57;102320.06;;;8.03;100.00
73516;BME280;61763;51.416;5.442;2023-04-08T06:45:22;102323.72;;;7.99;100.00
73516;BME280;61763;51.416;5.442;2023-04-08T06:47:48;102330.94;;;7.97;100.00
73516;BME280;61763;51.416;5.442;2023-04-08T06:50:13;102327.44;;;7.92;100.00
73516;BME280;61763;51.416;5.442;2023-04-08T06:52:39;102328.16;;;8.02;100.00
73516;BME280;61763;51.416;5.442;2023-04-08T06:55:04;102332.28;;;8.24;100.00
73516;BME280;61763;51.416;5.442;2023-04-08T06:57:30;102327.94;;;8.69;100.00
73516;BME280;61763;51.416;5.442;2023-04-08T06:59:55;102330.97;;;8.99;100.00
73516;BME280;61763;51.416;5.442;2023-04-08T07:02:22;102333.91;;;9.30;100.00
73516;BME280;61763;51.416;5.442;2023-04-08T07:04:48;102334.38;;;9.49;100.00
73516;BME280;61763;51.416;5.442;2023-04-08T07:07:13;102334.03;;;9.66;100.00
73516;BME280;61763;51.416;5.442;2023-04-08T07:09:39;102337.94;;;9.90;100.00
73516;BME280;61763;51.416;5.442;2023-04-08T07:12:10;102336.34;;;9.81;100.00
73516;BME280;61763;51.416;5.442;2023-04-08T07:14:36;102342.44;;;9.91;100.00
73516;BME280;61763;51.416;5.442;2023-04-08T07:17:01;102343.28;;;9.93;100.00
73516;BME280;61763;51.416;5.442;2023-04-08T07:19:27;102347.66;;;9.97;100.00
73516;BME280;61763;51.416;5.442;2023-04-08T07:21:52;102341.78;;;9.80;100.00
73516;BME280;61763;51.416;5.442;2023-04-08T07:24:18;102350.66;;;9.85;100.00
73516;BME280;61763;51.416;5.442;2023-04-08T07:26:43;102354.28;;;9.84;100.00
73516;BME280;61763;51.416;5.442;2023-04-08T07:29:09;102359.50;;;9.92;100.00
73516;BME280;61763;51.416;5.442;2023-04-08T07:31:35;102362.41;;;9.82;100.00
73516;BME280;61763;51.416;5.442;2023-04-08T07:34:00;102364.19;;;9.84;100.00
73516;BME280;61763;51.416;5.442;2023-04-08T07:36:26;102360.50;;;9.86;100.00
73516;BME280;61763;51.416;5.442;2023-04-08T07:38:52;102365.41;;;9.69;100.00
73516;BME280;61763;51.416;5.442;2023-04-08T07:41:17;102365.56;;;9.61;100.00
73516;BME280;61763;51.416;5.442;2023-04-08T07:43:43;102369.28;;;9.55;100.00
73516;BME280;61763;51.416;5.442;2023-04-08T07:46:10;102372.69;;;9.65;100.00
73516;BME280;61763;51.416;5.442;2023-04-08T07:48:35;102373.81;;;9.55;100.00
73516;BME280;61763;51.416;5.442;2023-04-08T07:51:05;102373.47;;;9.70;100.00
73516;BME280;61763;51.416;5.442;2023-04-08T07:53:31;102376.97;;;9.74;100.00
73516;BME280;61763;51.416;5.442;2023-04-08T07:55:57;102375.88;;;9.42;100.00
73516;BME280;61763;51.416;5.442;2023-04-08T07:58:23;102378.47;;;9.46;100.00
73516;BME280;61763;51.416;5.442;2023-04-08T08:00:49;102385.47;;;9.55;100.00
73516;BME280;61763;51.416;5.442;2023-04-08T08:03:14;102385.53;;;9.52;100.00
73516;BME280;61763;51.416;5.442;2023-04-08T08:05:41;102393.00;;;9.39;100.00
73516;BME280;61763;51.416;5.442;2023-04-08T08:08:06;102398.06;;;9.55;100.00
73516;BME280;61763;51.416;5.442;2023-04-08T08:10:32;102393.56;;;9.54;100.00
73516;BME280;61763;51.416;5.442;2023-04-08T08:12:58;102400.53;;;9.64;100.00
73516;BME280;61763;51.416;5.442;2023-04-08T08:15:23;102394.09;;;9.71;100.00
73516;BME280;61763;51.416;5.442;2023-04-08T08:17:49;102397.78;;;9.67;100.00
73516;BME280;61763;51.416;5.442;2023-04-08T08:20:15;102396.72;;;9.74;100.00
73516;BME280;61763;51.416;5.442;2023-04-08T08:22:40;102392.72;;;9.94;100.00
73516;BME280;61763;51.416;5.442;2023-04-08T08:25:06;102401.22;;;10.14;100.00
73516;BME280;61763;51.416;5.442;2023-04-08T08:27:33;102398.63;;;10.10;100.00
73516;BME280;61763;51.416;5.442;2023-04-08T08:29:59;102397.69;;;10.11;100.00
73516;BME280;61763;51.416;5.442;2023-04-08T08:32:24;102404.19;;;10.02;100.00
73516;BME280;61763;51.416;5.442;2023-04-08T08:34:50;102403.16;;;10.08;100.00
73516;BME280;61763;51.416;5.442;2023-04-08T08:37:15;102416.50;;;10.14;100.00
73516;BME280;61763;51.416;5.442;2023-04-08T08:39:41;102422.09;;;10.06;100.00
73516;BME280;61763;51.416;5.442;2023-04-08T08:42:06;102421.28;;;10.01;100.00
73516;BME280;61763;51.416;5.442;2023-04-08T08:44:31;102418.53;;;10.06;100.00
73516;BME280;61763;51.416;5.442;2023-04-08T08:46:57;102422.25;;;10.00;100.00
73516;BME280;61763;51.416;5.442;2023-04-08T08:49:22;102415.34;;;10.26;100.00
73516;BME280;61763;51.416;5.442;2023-04-08T08:51:49;102424.41;;;10.23;100.00
73516;BME280;61763;51.416;5.442;2023-04-08T08:54:15;102427.06;;;10.25;100.00
73516;BME280;61763;51.416;5.442;2023-04-08T08:56:41;102421.53;;;10.31;100.00
73516;BME280;61763;51.416;5.442;2023-04-08T08:59:08;102425.78;;;10.43;100.00
73516;BME280;61763;51.416;5.442;2023-04-08T09:01:40;102433.78;;;10.46;100.00
73516;BME280;61763;51.416;5.442;2023-04-08T09:04:10;102438.06;;;10.55;100.00
73516;BME280;61763;51.416;5.442;2023-04-08T09:06:37;102432.50;;;10.61;100.00
73516;BME280;61763;51.416;5.442;2023-04-08T09:09:03;102436.59;;;10.77;100.00
73516;BME280;61763;51.416;5.442;2023-04-08T09:11:30;102441.38;;;10.67;100.00
73516;BME280;61763;51.416;5.442;2023-04-08T09:13:56;102444.97;;;10.66;100.00
73516;BME280;61763;51.416;5.442;2023-04-08T09:16:21;102441.41;;;10.66;100.00
73516;BME280;61763;51.416;5.442;2023-04-08T09:18:48;102446.94;;;10.60;100.00
73516;BME280;61763;51.416;5.442;2023-04-08T09:21:15;102446.16;;;10.55;100.00
73516;BME280;61763;51.416;5.442;2023-04-08T09:23:46;102445.13;;;10.21;100.00
73516;BME280;61763;51.416;5.442;2023-04-08T09:26:13;102453.19;;;10.62;100.00
73516;BME280;61763;51.416;5.442;2023-04-08T09:28:40;102449.53;;;10.63;100.00
73516;BME280;61763;51.416;5.442;2023-04-08T09:31:20;102443.56;;;10.51;100.00
73516;BME280;61763;51.416;5.442;2023-04-08T09:33:47;102456.94;;;10.56;100.00
73516;BME280;61763;51.416;5.442;2023-04-08T09:36:14;102462.19;;;10.62;100.00
73516;BME280;61763;51.416;5.442;2023-04-08T09:38:40;102462.38;;;10.55;100.00
73516;BME280;61763;51.416;5.442;2023-04-08T09:41:06;102461.41;;;10.93;100.00
73516;BME280;61763;51.416;5.442;2023-04-08T09:43:36;102460.00;;;11.11;100.00
73516;BME280;61763;51.416;5.442;2023-04-08T09:46:06;102465.41;;;11.11;100.00
73516;BME280;61763;51.416;5.442;2023-04-08T09:48:39;102468.00;;;11.16;100.00
73516;BME280;61763;51.416;5.442;2023-04-08T09:51:07;102467.47;;;11.03;100.00
73516;BME280;61763;51.416;5.442;2023-04-08T09:53:37;102462.59;;;11.16;100.00
73516;BME280;61763;51.416;5.442;2023-04-08T09:56:10;102456.69;;;11.01;100.00
73516;BME280;61763;51.416;5.442;2023-04-08T09:59:06;102469.91;;;10.78;100.00
73516;BME280;61763;51.416;5.442;2023-04-08T10:01:38;102468.88;;;10.82;100.00
73516;BME280;61763;51.416;5.442;2023-04-08T10:04:07;102460.00;;;11.11;100.00
73516;BME280;61763;51.416;5.442;2023-04-08T10:06:35;102462.88;;;11.38;100.00
73516;BME280;61763;51.416;5.442;2023-04-08T10:09:01;102465.84;;;11.62;100.00
73516;BME280;61763;51.416;5.442;2023-04-08T10:11:29;102467.91;;;11.52;100.00
73516;BME280;61763;51.416;5.442;2023-04-08T10:13:55;102462.91;;;12.01;100.00
73516;BME280;61763;51.416;5.442;2023-04-08T10:18:47;102457.69;;;12.51;98.29
73516;BME280;61763;51.416;5.442;2023-04-08T10:23:58;102463.88;;;12.83;95.42
73516;BME280;61763;51.416;5.442;2023-04-08T10:26:32;102466.75;;;12.78;95.14
73516;BME280;61763;51.416;5.442;2023-04-08T10:31:43;102468.38;;;11.99;100.00
73516;BME280;61763;51.416;5.442;2023-04-08T10:34:21;102465.06;;;11.88;100.00
73516;BME280;61763;51.416;5.442;2023-04-08T10:36:48;102457.03;;;11.85;100.00
73516;BME280;61763;51.416;5.442;2023-04-08T10:39:14;102457.31;;;12.07;100.00
73516;BME280;61763;51.416;5.442;2023-04-08T10:41:48;102459.56;;;11.91;100.00
73516;BME280;61763;51.416;5.442;2023-04-08T10:44:24;102459.84;;;12.13;99.30
73516;BME280;61763;51.416;5.442;2023-04-08T10:46:52;102458.53;;;12.26;97.55
73516;BME280;61763;51.416;5.442;2023-04-08T10:49:18;102441.41;;;13.06;92.29
73516;BME280;61763;51.416;5.442;2023-04-08T10:51:44;102449.47;;;13.08;92.54
73516;BME280;61763;51.416;5.442;2023-04-08T10:54:12;102449.50;;;12.81;94.02
73516;BME280;61763;51.416;5.442;2023-04-08T10:59:09;102451.50;;;12.48;99.52
73516;BME280;61763;51.416;5.442;2023-04-08T11:01:39;102452.94;;;12.59;93.41
73516;BME280;61763;51.416;5.442;2023-04-08T11:04:15;102450.38;;;12.55;92.02
73516;BME280;61763;51.416;5.442;2023-04-08T11:06:42;102450.50;;;12.52;92.46
73516;BME280;61763;51.416;5.442;2023-04-08T11:09:08;102442.84;;;12.36;93.88
73516;BME280;61763;51.416;5.442;2023-04-08T11:11:34;102439.97;;;12.41;94.47
73516;BME280;61763;51.416;5.442;2023-04-08T11:14:00;102437.31;;;12.68;95.59
73516;BME280;61763;51.416;5.442;2023-04-08T11:16:26;102428.59;;;12.85;96.95
73516;BME280;61763;51.416;5.442;2023-04-08T11:18:54;102420.25;;;13.43;91.42
73516;BME280;61763;51.416;5.442;2023-04-08T11:21:24;102419.03;;;13.75;89.24
73516;BME280;61763;51.416;5.442;2023-04-08T11:23:53;102416.63;;;13.90;88.69
73516;BME280;61763;51.416;5.442;2023-04-08T11:26:18;102422.63;;;14.22;86.08
73516;BME280;61763;51.416;5.442;2023-04-08T11:28:45;102419.69;;;14.04;87.40
73516;BME280;61763;51.416;5.442;2023-04-08T11:31:13;102423.72;;;13.70;93.76
73516;BME280;61763;51.416;5.442;2023-04-08T11:33:46;102430.63;;;13.30;91.79
73516;BME280;61763;51.416;5.442;2023-04-08T11:36:12;102422.84;;;13.21;90.37
73516;BME280;61763;51.416;5.442;2023-04-08T11:38:38;102420.47;;;13.10;94.53
73516;BME280;61763;51.416;5.442;2023-04-08T11:41:05;102424.00;;;13.13;89.16
73516;BME280;61763;51.416;5.442;2023-04-08T11:43:30;102421.16;;;13.17;93.07
73516;BME280;61763;51.416;5.442;2023-04-08T11:45:56;102419.22;;;13.45;97.04
73516;BME280;61763;51.416;5.442;2023-04-08T11:48:21;102419.22;;;13.71;86.56
73516;BME280;61763;51.416;5.442;2023-04-08T11:51:01;102422.44;;;13.57;85.30
73516;BME280;61763;51.416;5.442;2023-04-08T11:53:27;102425.88;;;13.37;83.37
73516;BME280;61763;51.416;5.442;2023-04-08T11:55:55;102429.44;;;13.39;83.79
73516;BME280;61763;51.416;5.442;2023-04-08T11:58:20;102414.97;;;13.38;86.37
73516;BME280;61763;51.416;5.442;2023-04-08T12:00:46;102420.81;;;13.51;85.92
73516;BME280;61763;51.416;5.442;2023-04-08T12:03:13;102430.84;;;13.49;86.16
73516;BME280;61763;51.416;5.442;2023-04-08T12:05:39;102426.13;;;13.29;81.46
73516;BME280;61763;51.416;5.442;2023-04-08T12:08:04;102428.44;;;13.41;78.01
73516;BME280;61763;51.416;5.442;2023-04-08T12:10:30;102427.13;;;13.01;73.81
73516;BME280;61763;51.416;5.442;2023-04-08T12:12:58;102422.97;;;12.91;74.80
73516;BME280;61763;51.416;5.442;2023-04-08T12:15:23;102429.13;;;12.96;78.95
73516;BME280;61763;51.416;5.442;2023-04-08T12:17:48;102427.22;;;12.98;77.48
73516;BME280;61763;51.416;5.442;2023-04-08T12:20:14;102419.50;;;13.12;78.39
73516;BME280;61763;51.416;5.442;2023-04-08T12:22:41;102412.81;;;13.48;80.66
73516;BME280;61763;51.416;5.442;2023-04-08T12:25:07;102413.34;;;13.34;76.06
73516;BME280;61763;51.416;5.442;2023-04-08T12:27:32;102414.69;;;13.46;72.41
73516;BME280;61763;51.416;5.442;2023-04-08T12:29:58;102414.81;;;13.43;68.62
73516;BME280;61763;51.416;5.442;2023-04-08T12:32:24;102425.94;;;13.35;71.78
73516;BME280;61763;51.416;5.442;2023-04-08T12:34:50;102422.09;;;13.41;71.23
73516;BME280;61763;51.416;5.442;2023-04-08T12:37:16;102413.47;;;13.29;66.58
73516;BME280;61763;51.416;5.442;2023-04-08T12:39:43;102411.56;;;13.57;68.30
73516;BME280;61763;51.416;5.442;2023-04-08T12:42:08;102406.81;;;13.87;63.11
73516;BME280;61763;51.416;5.442;2023-04-08T12:44:34;102408.78;;;13.82;61.22
73516;BME280;61763;51.416;5.442;2023-04-08T12:47:01;102409.75;;;13.57;61.62
73516;BME280;61763;51.416;5.442;2023-04-08T12:49:26;102414.47;;;13.76;60.63
73516;BME280;61763;51.416;5.442;2023-04-08T12:51:52;102400.88;;;13.99;56.40
73516;BME280;61763;51.416;5.442;2023-04-08T12:54:18;102399.69;;;14.07;57.79
73516;BME280;61763;51.416;5.442;2023-04-08T12:56:43;102399.44;;;13.67;49.02
73516;BME280;61763;51.416;5.442;2023-04-08T12:59:09;102392.06;;;13.71;51.68
73516;BME280;61763;51.416;5.442;2023-04-08T13:01:35;102392.78;;;13.98;51.73
73516;BME280;61763;51.416;5.442;2023-04-08T13:04:01;102396.06;;;13.84;54.51